Terminal Aerodrome Forecast
Issued by NWS

Home | Current Version | Previous Version | Text Only | Print | Product List | Glossary On
Versions: 1 2 3 4 5 6 7 8 9 10 11 12 13 14 15 16 17 18
000
FTUS43 KLSX 300700 AAA
TAFCPS
TAF AMD
KCPS 300723Z 3007/3106 32013KT P6SM BKN035
     FM300900 33010KT P6SM BKN025
     FM301300 34010KT P6SM SCT025
     FM301800 VRB03KT P6SM SKC=

USA.gov is the U.S. government's official web portal to all federal, state and local government web resources and services.